MMNL/NLD METAR and TAF weather

Enter ICAO airport designator
Station Type Date Time Source
MMNL METAR 2018/12/11 17:40 UTC NOAA

MMNL 111740Z 15007KT 8SM BKN200 14/07 A3035 RMK SLP270 57013 986 8/002


Station Type Date Time Source
MMNL Decoded METAR 2018/12/11 17:40 UTC NOAA

Nuevo Laredo International , Mexico (MMNL) 27-26N 099-34W
Dec 11, 2018 - 12:40 PM EST / 2018.12.11 1740 UTC
Wind: from the SSE (150 degrees) at 8 MPH (7 KT):0
Visibility: 8 mile(s):0
Sky conditions: mostly cloudy
Temperature: 57 F (14 C)
Dew Point: 44 F (7 C)
Relative Humidity: 62%
Pressure (altimeter): 30.35 in. Hg (1027 hPa)
Pressure tendency: 0.04 inches (1.3 hPa) lower than three hours ago
ob: MMNL 111740Z 15007KT 8SM BKN200 14/07 A3035 RMK SLP270 57013 986 8/002
cycle: 17

Station Type Date Time Source
MMNL TAF 2018/12/11 18:09 UTC NOAA

TAF MMNL 111707Z 1118/1218 15015KT P6SM BKN200
FM120300 16010KT P6SM BKN020 BKN200


Example: see airport list